sensor_id;sensor_type;location;lat;lon;timestamp;P1;durP1;ratioP1;P2;durP2;ratioP2
29686;SDS011;16599;47.078;15.536;2023-08-24T00:00:21;4.68;;;2.78;;
29686;SDS011;16599;47.078;15.536;2023-08-24T00:02:48;5.20;;;2.88;;
29686;SDS011;16599;47.078;15.536;2023-08-24T00:05:15;3.22;;;2.17;;
29686;SDS011;16599;47.078;15.536;2023-08-24T00:07:42;2.47;;;2.17;;
29686;SDS011;16599;47.078;15.536;2023-08-24T00:10:09;4.85;;;2.78;;
29686;SDS011;16599;47.078;15.536;2023-08-24T00:12:36;22.88;;;3.95;;
29686;SDS011;16599;47.078;15.536;2023-08-24T00:15:04;7.22;;;3.10;;
29686;SDS011;16599;47.078;15.536;2023-08-24T00:17:35;4.00;;;2.72;;
29686;SDS011;16599;47.078;15.536;2023-08-24T00:20:01;7.00;;;2.42;;
29686;SDS011;16599;47.078;15.536;2023-08-24T00:22:30;9.98;;;3.13;;
29686;SDS011;16599;47.078;15.536;2023-08-24T00:24:57;4.53;;;3.38;;
29686;SDS011;16599;47.078;15.536;2023-08-24T00:27:25;3.78;;;2.53;;
29686;SDS011;16599;47.078;15.536;2023-08-24T00:29:52;2.15;;;1.90;;
29686;SDS011;16599;47.078;15.536;2023-08-24T00:32:19;15.98;;;3.53;;
29686;SDS011;16599;47.078;15.536;2023-08-24T00:34:46;4.43;;;2.72;;
29686;SDS011;16599;47.078;15.536;2023-08-24T00:37:12;2.97;;;1.73;;
29686;SDS011;16599;47.078;15.536;2023-08-24T00:39:39;14.85;;;3.35;;
29686;SDS011;16599;47.078;15.536;2023-08-24T00:42:06;5.97;;;2.78;;
29686;SDS011;16599;47.078;15.536;2023-08-24T00:44:34;4.90;;;2.50;;
29686;SDS011;16599;47.078;15.536;2023-08-24T00:47:01;4.88;;;2.75;;
29686;SDS011;16599;47.078;15.536;2023-08-24T00:49:28;3.70;;;2.70;;
29686;SDS011;16599;47.078;15.536;2023-08-24T00:51:56;4.20;;;2.50;;
29686;SDS011;16599;47.078;15.536;2023-08-24T00:54:23;5.75;;;2.83;;
29686;SDS011;16599;47.078;15.536;2023-08-24T00:56:50;3.67;;;2.05;;
29686;SDS011;16599;47.078;15.536;2023-08-24T00:59:17;9.00;;;2.35;;
29686;SDS011;16599;47.078;15.536;2023-08-24T01:01:44;4.15;;;2.35;;
29686;SDS011;16599;47.078;15.536;2023-08-24T01:04:13;2.53;;;1.73;;
29686;SDS011;16599;47.078;15.536;2023-08-24T01:06:40;4.10;;;2.28;;
29686;SDS011;16599;47.078;15.536;2023-08-24T01:09:07;3.63;;;2.30;;
29686;SDS011;16599;47.078;15.536;2023-08-24T01:11:41;4.10;;;1.92;;
29686;SDS011;16599;47.078;15.536;2023-08-24T01:17:01;6.13;;;2.38;;
29686;SDS011;16599;47.078;15.536;2023-08-24T01:19:36;3.65;;;1.98;;
29686;SDS011;16599;47.078;15.536;2023-08-24T01:22:08;3.78;;;2.65;;
29686;SDS011;16599;47.078;15.536;2023-08-24T01:24:55;3.28;;;1.77;;
29686;SDS011;16599;47.078;15.536;2023-08-24T01:27:50;4.57;;;2.53;;
29686;SDS011;16599;47.078;15.536;2023-08-24T01:30:18;2.35;;;1.60;;
29686;SDS011;16599;47.078;15.536;2023-08-24T01:32:46;5.22;;;2.55;;
29686;SDS011;16599;47.078;15.536;2023-08-24T01:35:13;5.68;;;2.15;;
29686;SDS011;16599;47.078;15.536;2023-08-24T01:37:40;6.15;;;2.70;;
29686;SDS011;16599;47.078;15.536;2023-08-24T01:40:21;4.88;;;2.53;;
29686;SDS011;16599;47.078;15.536;2023-08-24T01:43:01;3.90;;;2.35;;
29686;SDS011;16599;47.078;15.536;2023-08-24T01:45:30;9.43;;;2.92;;
29686;SDS011;16599;47.078;15.536;2023-08-24T01:48:02;6.05;;;2.78;;
29686;SDS011;16599;47.078;15.536;2023-08-24T01:50:30;2.08;;;1.65;;
29686;SDS011;16599;47.078;15.536;2023-08-24T01:52:58;4.03;;;2.55;;
29686;SDS011;16599;47.078;15.536;2023-08-24T01:55:26;3.75;;;2.42;;
29686;SDS011;16599;47.078;15.536;2023-08-24T01:57:54;4.22;;;1.95;;
29686;SDS011;16599;47.078;15.536;2023-08-24T02:00:22;6.43;;;2.20;;
29686;SDS011;16599;47.078;15.536;2023-08-24T02:02:49;3.30;;;2.38;;
29686;SDS011;16599;47.078;15.536;2023-08-24T02:05:16;5.63;;;2.80;;
29686;SDS011;16599;47.078;15.536;2023-08-24T02:07:43;7.55;;;2.53;;
29686;SDS011;16599;47.078;15.536;2023-08-24T02:10:10;2.50;;;1.70;;
29686;SDS011;16599;47.078;15.536;2023-08-24T02:12:37;7.68;;;1.65;;
29686;SDS011;16599;47.078;15.536;2023-08-24T02:15:04;2.33;;;1.55;;
29686;SDS011;16599;47.078;15.536;2023-08-24T02:17:31;7.18;;;2.72;;
29686;SDS011;16599;47.078;15.536;2023-08-24T02:19:58;5.40;;;2.40;;
29686;SDS011;16599;47.078;15.536;2023-08-24T02:22:25;5.00;;;2.20;;
29686;SDS011;16599;47.078;15.536;2023-08-24T02:24:52;7.07;;;2.30;;
29686;SDS011;16599;47.078;15.536;2023-08-24T02:27:19;2.53;;;2.13;;
29686;SDS011;16599;47.078;15.536;2023-08-24T02:29:45;3.47;;;2.20;;
29686;SDS011;16599;47.078;15.536;2023-08-24T02:32:12;3.72;;;2.03;;
29686;SDS011;16599;47.078;15.536;2023-08-24T02:34:39;2.50;;;1.95;;
29686;SDS011;16599;47.078;15.536;2023-08-24T02:37:06;4.97;;;2.72;;
29686;SDS011;16599;47.078;15.536;2023-08-24T02:39:33;3.80;;;2.60;;
29686;SDS011;16599;47.078;15.536;2023-08-24T02:42:01;5.53;;;2.92;;
29686;SDS011;16599;47.078;15.536;2023-08-24T02:44:28;2.30;;;1.70;;
29686;SDS011;16599;47.078;15.536;2023-08-24T02:46:55;2.65;;;2.13;;
29686;SDS011;16599;47.078;15.536;2023-08-24T02:49:22;2.60;;;1.35;;
29686;SDS011;16599;47.078;15.536;2023-08-24T02:51:49;5.03;;;2.40;;
29686;SDS011;16599;47.078;15.536;2023-08-24T02:54:16;1.92;;;1.75;;
29686;SDS011;16599;47.078;15.536;2023-08-24T02:56:43;3.55;;;1.50;;
29686;SDS011;16599;47.078;15.536;2023-08-24T02:59:10;3.75;;;2.15;;
29686;SDS011;16599;47.078;15.536;2023-08-24T03:01:36;3.40;;;2.35;;
29686;SDS011;16599;47.078;15.536;2023-08-24T03:04:04;2.28;;;1.83;;
29686;SDS011;16599;47.078;15.536;2023-08-24T03:06:31;3.28;;;1.95;;
29686;SDS011;16599;47.078;15.536;2023-08-24T03:08:59;3.08;;;1.92;;
29686;SDS011;16599;47.078;15.536;2023-08-24T03:11:27;16.80;;;2.78;;
29686;SDS011;16599;47.078;15.536;2023-08-24T03:13:54;3.40;;;2.17;;
29686;SDS011;16599;47.078;15.536;2023-08-24T03:16:20;6.25;;;2.67;;
29686;SDS011;16599;47.078;15.536;2023-08-24T03:18:48;4.90;;;2.22;;
29686;SDS011;16599;47.078;15.536;2023-08-24T03:21:15;4.97;;;2.15;;
29686;SDS011;16599;47.078;15.536;2023-08-24T03:23:42;1.45;;;1.30;;
29686;SDS011;16599;47.078;15.536;2023-08-24T03:26:09;2.88;;;2.35;;
29686;SDS011;16599;47.078;15.536;2023-08-24T03:28:36;3.08;;;2.17;;
29686;SDS011;16599;47.078;15.536;2023-08-24T03:31:03;3.17;;;1.77;;
29686;SDS011;16599;47.078;15.536;2023-08-24T03:33:32;3.78;;;1.98;;
29686;SDS011;16599;47.078;15.536;2023-08-24T03:36:01;3.83;;;2.17;;
29686;SDS011;16599;47.078;15.536;2023-08-24T03:38:29;4.00;;;2.25;;
29686;SDS011;16599;47.078;15.536;2023-08-24T03:41:00;3.65;;;1.52;;
29686;SDS011;16599;47.078;15.536;2023-08-24T03:43:30;8.80;;;1.73;;
29686;SDS011;16599;47.078;15.536;2023-08-24T03:45:59;6.60;;;4.03;;
29686;SDS011;16599;47.078;15.536;2023-08-24T03:48:27;3.95;;;2.28;;
29686;SDS011;16599;47.078;15.536;2023-08-24T03:50:54;2.20;;;1.23;;
29686;SDS011;16599;47.078;15.536;2023-08-24T03:53:22;2.33;;;2.10;;
29686;SDS011;16599;47.078;15.536;2023-08-24T03:55:50;3.30;;;1.83;;
29686;SDS011;16599;47.078;15.536;2023-08-24T03:58:17;10.40;;;2.45;;
29686;SDS011;16599;47.078;15.536;2023-08-24T04:00:45;1.42;;;1.33;;
29686;SDS011;16599;47.078;15.536;2023-08-24T04:03:12;3.15;;;2.03;;
29686;SDS011;16599;47.078;15.536;2023-08-24T04:05:40;1.98;;;1.70;;
29686;SDS011;16599;47.078;15.536;2023-08-24T04:08:06;2.33;;;1.75;;
29686;SDS011;16599;47.078;15.536;2023-08-24T04:10:34;2.25;;;1.80;;
29686;SDS011;16599;47.078;15.536;2023-08-24T04:13:00;2.05;;;1.40;;
29686;SDS011;16599;47.078;15.536;2023-08-24T04:15:27;3.10;;;2.17;;
29686;SDS011;16599;47.078;15.536;2023-08-24T04:17:54;1.85;;;1.70;;
29686;SDS011;16599;47.078;15.536;2023-08-24T04:20:21;4.35;;;3.30;;
29686;SDS011;16599;47.078;15.536;2023-08-24T04:22:48;1.95;;;1.70;;
29686;SDS011;16599;47.078;15.536;2023-08-24T04:25:15;5.50;;;2.42;;
29686;SDS011;16599;47.078;15.536;2023-08-24T04:27:42;14.50;;;1.95;;
29686;SDS011;16599;47.078;15.536;2023-08-24T04:30:09;5.50;;;2.38;;
29686;SDS011;16599;47.078;15.536;2023-08-24T04:32:38;3.58;;;1.50;;
29686;SDS011;16599;47.078;15.536;2023-08-24T04:35:06;3.55;;;2.42;;
29686;SDS011;16599;47.078;15.536;2023-08-24T04:37:34;5.65;;;2.42;;
29686;SDS011;16599;47.078;15.536;2023-08-24T04:40:01;4.40;;;1.65;;
29686;SDS011;16599;47.078;15.536;2023-08-24T04:42:28;2.95;;;1.77;;
29686;SDS011;16599;47.078;15.536;2023-08-24T04:44:55;13.68;;;2.42;;
29686;SDS011;16599;47.078;15.536;2023-08-24T04:47:25;3.47;;;1.77;;
29686;SDS011;16599;47.078;15.536;2023-08-24T04:49:53;2.38;;;1.67;;
29686;SDS011;16599;47.078;15.536;2023-08-24T04:52:20;3.33;;;1.80;;
29686;SDS011;16599;47.078;15.536;2023-08-24T04:54:46;1.80;;;1.40;;
29686;SDS011;16599;47.078;15.536;2023-08-24T04:57:13;1.65;;;1.55;;
29686;SDS011;16599;47.078;15.536;2023-08-24T04:59:40;3.40;;;1.75;;
29686;SDS011;16599;47.078;15.536;2023-08-24T05:02:07;1.98;;;1.52;;
29686;SDS011;16599;47.078;15.536;2023-08-24T05:04:34;4.70;;;2.15;;
29686;SDS011;16599;47.078;15.536;2023-08-24T05:07:01;1.55;;;1.30;;
29686;SDS011;16599;47.078;15.536;2023-08-24T05:09:28;3.22;;;2.10;;
29686;SDS011;16599;47.078;15.536;2023-08-24T05:11:55;2.72;;;1.67;;
29686;SDS011;16599;47.078;15.536;2023-08-24T05:14:22;4.00;;;1.45;;
29686;SDS011;16599;47.078;15.536;2023-08-24T05:16:49;1.67;;;1.58;;
29686;SDS011;16599;47.078;15.536;2023-08-24T05:19:16;3.72;;;2.25;;
29686;SDS011;16599;47.078;15.536;2023-08-24T05:21:43;2.17;;;1.70;;
29686;SDS011;16599;47.078;15.536;2023-08-24T05:24:09;3.00;;;2.17;;
29686;SDS011;16599;47.078;15.536;2023-08-24T05:26:36;5.43;;;2.42;;
29686;SDS011;16599;47.078;15.536;2023-08-24T05:29:03;6.25;;;3.05;;
29686;SDS011;16599;47.078;15.536;2023-08-24T05:31:30;4.28;;;2.58;;
29686;SDS011;16599;47.078;15.536;2023-08-24T05:33:57;2.78;;;1.42;;
29686;SDS011;16599;47.078;15.536;2023-08-24T05:36:24;3.58;;;2.22;;
29686;SDS011;16599;47.078;15.536;2023-08-24T05:38:51;2.53;;;2.33;;
29686;SDS011;16599;47.078;15.536;2023-08-24T05:41:31;2.38;;;1.63;;
29686;SDS011;16599;47.078;15.536;2023-08-24T05:43:59;5.32;;;3.15;;
29686;SDS011;16599;47.078;15.536;2023-08-24T05:46:26;7.90;;;3.38;;
29686;SDS011;16599;47.078;15.536;2023-08-24T05:48:53;6.10;;;3.10;;
29686;SDS011;16599;47.078;15.536;2023-08-24T05:51:20;3.22;;;2.30;;
29686;SDS011;16599;47.078;15.536;2023-08-24T05:53:47;3.70;;;3.05;;
29686;SDS011;16599;47.078;15.536;2023-08-24T05:56:13;3.30;;;2.58;;
29686;SDS011;16599;47.078;15.536;2023-08-24T05:58:40;6.00;;;2.92;;
29686;SDS011;16599;47.078;15.536;2023-08-24T06:01:07;3.00;;;2.47;;
29686;SDS011;16599;47.078;15.536;2023-08-24T06:03:34;5.07;;;2.97;;
29686;SDS011;16599;47.078;15.536;2023-08-24T06:06:02;5.95;;;2.47;;
29686;SDS011;16599;47.078;15.536;2023-08-24T06:08:30;3.28;;;2.47;;
29686;SDS011;16599;47.078;15.536;2023-08-24T06:10:58;3.88;;;2.58;;
29686;SDS011;16599;47.078;15.536;2023-08-24T06:13:26;2.53;;;1.95;;
29686;SDS011;16599;47.078;15.536;2023-08-24T06:15:53;3.58;;;2.42;;
29686;SDS011;16599;47.078;15.536;2023-08-24T06:18:21;3.30;;;2.17;;
29686;SDS011;16599;47.078;15.536;2023-08-24T06:20:48;5.50;;;3.20;;
29686;SDS011;16599;47.078;15.536;2023-08-24T06:23:17;5.82;;;3.03;;
29686;SDS011;16599;47.078;15.536;2023-08-24T06:25:45;5.38;;;2.67;;
29686;SDS011;16599;47.078;15.536;2023-08-24T06:28:12;4.90;;;2.55;;
29686;SDS011;16599;47.078;15.536;2023-08-24T06:30:40;3.88;;;2.35;;
29686;SDS011;16599;47.078;15.536;2023-08-24T06:33:09;8.15;;;2.25;;
29686;SDS011;16599;47.078;15.536;2023-08-24T06:35:42;4.65;;;2.58;;
29686;SDS011;16599;47.078;15.536;2023-08-24T06:40:38;3.17;;;2.60;;
29686;SDS011;16599;47.078;15.536;2023-08-24T07:07:57;4.60;;;2.92;;
29686;SDS011;16599;47.078;15.536;2023-08-24T09:09:59;5.47;;;3.38;;
29686;SDS011;16599;47.078;15.536;2023-08-24T09:35:08;13.50;;;5.93;;
29686;SDS011;16599;47.078;15.536;2023-08-24T09:37:37;6.55;;;4.35;;
29686;SDS011;16599;47.078;15.536;2023-08-24T10:20:40;6.90;;;4.15;;
29686;SDS011;16599;47.078;15.536;2023-08-24T10:23:09;9.20;;;4.07;;
29686;SDS011;16599;47.078;15.536;2023-08-24T10:25:38;7.90;;;4.70;;
29686;SDS011;16599;47.078;15.536;2023-08-24T10:28:08;6.35;;;4.20;;
29686;SDS011;16599;47.078;15.536;2023-08-24T10:35:54;9.48;;;4.43;;
29686;SDS011;16599;47.078;15.536;2023-08-24T10:38:28;6.38;;;4.22;;
29686;SDS011;16599;47.078;15.536;2023-08-24T10:41:03;7.85;;;5.00;;
29686;SDS011;16599;47.078;15.536;2023-08-24T10:43:41;6.82;;;3.97;;
29686;SDS011;16599;47.078;15.536;2023-08-24T10:46:14;8.32;;;4.53;;
29686;SDS011;16599;47.078;15.536;2023-08-24T10:51:21;5.55;;;4.43;;
29686;SDS011;16599;47.078;15.536;2023-08-24T10:56:41;7.13;;;5.18;;
29686;SDS011;16599;47.078;15.536;2023-08-24T11:06:18;9.07;;;5.22;;
29686;SDS011;16599;47.078;15.536;2023-08-24T11:08:48;9.43;;;5.22;;
29686;SDS011;16599;47.078;15.536;2023-08-24T11:14:57;9.13;;;4.22;;
29686;SDS011;16599;47.078;15.536;2023-08-24T11:20:38;8.23;;;4.55;;
29686;SDS011;16599;47.078;15.536;2023-08-24T11:23:12;11.90;;;5.45;;
29686;SDS011;16599;47.078;15.536;2023-08-24T11:25:41;10.75;;;5.53;;
29686;SDS011;16599;47.078;15.536;2023-08-24T11:28:09;8.82;;;4.90;;
29686;SDS011;16599;47.078;15.536;2023-08-24T11:30:36;6.85;;;4.47;;
29686;SDS011;16599;47.078;15.536;2023-08-24T11:33:03;9.82;;;4.88;;
29686;SDS011;16599;47.078;15.536;2023-08-24T11:35:34;9.95;;;4.30;;
29686;SDS011;16599;47.078;15.536;2023-08-24T11:38:02;6.45;;;3.85;;
29686;SDS011;16599;47.078;15.536;2023-08-24T11:40:31;9.25;;;4.60;;
29686;SDS011;16599;47.078;15.536;2023-08-24T11:57:24;6.90;;;4.38;;
29686;SDS011;16599;47.078;15.536;2023-08-24T12:11:15;9.07;;;4.13;;
29686;SDS011;16599;47.078;15.536;2023-08-24T12:40:46;6.45;;;5.00;;
29686;SDS011;16599;47.078;15.536;2023-08-24T12:47:02;11.98;;;5.78;;
29686;SDS011;16599;47.078;15.536;2023-08-24T12:49:29;12.38;;;5.97;;
29686;SDS011;16599;47.078;15.536;2023-08-24T12:55:41;11.82;;;5.97;;
29686;SDS011;16599;47.078;15.536;2023-08-24T12:58:08;9.10;;;5.43;;
29686;SDS011;16599;47.078;15.536;2023-08-24T13:00:35;11.90;;;6.05;;
29686;SDS011;16599;47.078;15.536;2023-08-24T13:03:02;15.00;;;5.97;;
29686;SDS011;16599;47.078;15.536;2023-08-24T13:05:30;9.82;;;6.15;;
29686;SDS011;16599;47.078;15.536;2023-08-24T13:07:58;8.85;;;5.93;;
29686;SDS011;16599;47.078;15.536;2023-08-24T13:10:24;10.60;;;6.10;;
29686;SDS011;16599;47.078;15.536;2023-08-24T13:12:51;13.55;;;5.93;;
29686;SDS011;16599;47.078;15.536;2023-08-24T13:15:18;9.25;;;6.10;;
29686;SDS011;16599;47.078;15.536;2023-08-24T13:17:47;10.27;;;5.95;;
29686;SDS011;16599;47.078;15.536;2023-08-24T13:24:02;8.98;;;6.57;;
29686;SDS011;16599;47.078;15.536;2023-08-24T13:26:29;12.75;;;6.68;;
29686;SDS011;16599;47.078;15.536;2023-08-24T13:28:58;9.85;;;5.63;;
29686;SDS011;16599;47.078;15.536;2023-08-24T13:36:54;11.30;;;6.40;;
29686;SDS011;16599;47.078;15.536;2023-08-24T13:39:35;10.57;;;7.05;;
29686;SDS011;16599;47.078;15.536;2023-08-24T13:42:26;14.75;;;7.18;;
29686;SDS011;16599;47.078;15.536;2023-08-24T13:45:27;8.65;;;6.57;;
29686;SDS011;16599;47.078;15.536;2023-08-24T13:48:00;11.45;;;6.70;;
29686;SDS011;16599;47.078;15.536;2023-08-24T13:50:41;12.27;;;7.00;;
29686;SDS011;16599;47.078;15.536;2023-08-24T13:53:20;9.45;;;6.80;;
29686;SDS011;16599;47.078;15.536;2023-08-24T13:58:57;19.48;;;6.60;;
29686;SDS011;16599;47.078;15.536;2023-08-24T14:01:25;10.55;;;6.95;;
29686;SDS011;16599;47.078;15.536;2023-08-24T14:04:06;9.70;;;6.38;;
29686;SDS011;16599;47.078;15.536;2023-08-24T14:06:42;8.73;;;6.60;;
29686;SDS011;16599;47.078;15.536;2023-08-24T14:09:09;10.05;;;6.75;;
29686;SDS011;16599;47.078;15.536;2023-08-24T14:11:37;9.95;;;6.72;;
29686;SDS011;16599;47.078;15.536;2023-08-24T14:50:25;9.27;;;6.43;;
29686;SDS011;16599;47.078;15.536;2023-08-24T14:52:55;10.35;;;7.32;;
29686;SDS011;16599;47.078;15.536;2023-08-24T15:31:31;11.70;;;7.07;;
29686;SDS011;16599;47.078;15.536;2023-08-24T15:34:08;11.50;;;7.10;;
29686;SDS011;16599;47.078;15.536;2023-08-24T15:50:51;10.60;;;7.45;;
29686;SDS011;16599;47.078;15.536;2023-08-24T16:01:14;13.00;;;7.75;;
29686;SDS011;16599;47.078;15.536;2023-08-24T16:03:41;12.05;;;8.05;;
29686;SDS011;16599;47.078;15.536;2023-08-24T18:12:40;16.67;;;6.97;;
29686;SDS011;16599;47.078;15.536;2023-08-24T18:18:54;14.13;;;7.13;;
29686;SDS011;16599;47.078;15.536;2023-08-24T18:21:23;11.30;;;7.40;;
29686;SDS011;16599;47.078;15.536;2023-08-24T18:23:50;12.25;;;7.15;;
29686;SDS011;16599;47.078;15.536;2023-08-24T18:30:16;11.40;;;6.30;;
29686;SDS011;16599;47.078;15.536;2023-08-24T18:36:45;14.63;;;6.72;;
29686;SDS011;16599;47.078;15.536;2023-08-24T19:11:45;14.77;;;6.10;;
